Terminal Aerodrome Forecast
Issued by NWS Knoxville/Tri Cities, TN

Home | Current Version | Previous Version | Text Only | Print | Product List | Glossary On
Versions: 1 2 3 4 5 6 7 8 9 10 11 12 13 14 15 16
000
FTUS44 KMRX 191724
TAFCHA
TAF
KCHA 191724Z 1918/2018 17008KT P6SM OVC015
     FM192300 16005KT P6SM OVC020
     FM200700 17005KT P6SM OVC012
     FM201400 17008KT P6SM BKN025=

USA.gov is the U.S. government's official web portal to all federal, state and local government web resources and services.